Time;durP1;ratioP1;P1;durP2;ratioP2;P2;SDS_P1;SDS_P2;PMS_P1;PMS_P2;Temp;Humidity;BMP_temperature;BMP_pressure;BME280_temperature;BME280_humidity;BME280_pressure;Samples;Min_cycle;Max_cycle;Signal;HPM_P1;HPM_P2
2022/12/06 00:01:44;;;;;;;18.73;11.07;;;3.90;99.90;;;;;;4987428;28;20559;-50
2022/12/06 00:04:15;;;;;;;20.67;11.40;;;3.90;99.90;;;;;;4978595;28;20937;-51
2022/12/06 00:06:46;;;;;;;20.23;11.80;;;3.90;99.90;;;;;;4987695;28;20276;-53
2022/12/06 00:09:17;;;;;;;24.20;11.93;;;3.90;99.90;;;;;;4968867;28;21186;-52
2022/12/06 00:11:45;;;;;;;21.00;11.57;;;3.90;99.90;;;;;;4987581;28;20197;-52
2022/12/06 00:14:12;;;;;;;21.57;12.10;;;3.90;99.90;;;;;;4983685;28;20224;-53
2022/12/06 00:16:40;;;;;;;18.90;11.53;;;3.90;99.90;;;;;;4987340;28;20200;-51
2022/12/06 00:19:07;;;;;;;21.97;12.07;;;4.00;99.90;;;;;;4977420;28;20221;-50
2022/12/06 00:21:36;;;;;;;21.60;11.13;;;4.00;99.90;;;;;;4986065;28;20202;-55
2022/12/06 00:24:05;;;;;;;20.67;11.10;;;4.00;99.90;;;;;;4968975;28;20268;-52
2022/12/06 00:26:34;;;;;;;19.43;9.97;;;4.00;99.90;;;;;;4986838;28;20193;-54
2022/12/06 00:29:01;;;;;;;18.83;10.30;;;4.00;99.90;;;;;;4983497;28;20213;-54
2022/12/06 00:31:30;;;;;;;18.67;10.10;;;4.00;99.90;;;;;;4986720;28;20225;-53
2022/12/06 00:33:58;;;;;;;18.10;10.20;;;4.00;99.90;;;;;;4978130;28;20263;-55
2022/12/06 00:36:28;;;;;;;16.23;9.70;;;4.00;99.90;;;;;;4980279;28;20197;-53
2022/12/06 00:38:55;;;;;;;14.73;9.27;;;4.00;99.90;;;;;;4983354;28;20217;-50
2022/12/06 00:41:24;;;;;;;14.17;9.03;;;4.00;99.90;;;;;;4970175;28;20209;-51
2022/12/06 00:43:52;;;;;;;15.00;9.10;;;4.00;99.90;;;;;;4984708;28;20207;-53
2022/12/06 00:46:21;;;;;;;14.37;8.67;;;4.00;99.90;;;;;;4985320;28;20193;-50
2022/12/06 00:48:49;;;;;;;16.10;9.53;;;4.00;99.90;;;;;;4983804;28;20202;-54
2022/12/06 00:51:18;;;;;;;14.00;8.83;;;4.00;99.90;;;;;;4981305;28;20209;-50
2022/12/06 00:53:46;;;;;;;16.53;8.97;;;4.10;99.90;;;;;;4985693;28;20209;-52
2022/12/06 00:56:13;;;;;;;10.80;7.90;;;4.10;99.90;;;;;;4968092;28;20223;-51
2022/12/06 00:58:40;;;;;;;11.97;7.97;;;4.10;99.90;;;;;;4985910;28;20308;-51
2022/12/06 01:01:08;;;;;;;13.77;8.70;;;4.10;99.90;;;;;;4982660;28;20201;-51
2022/12/06 01:03:35;;;;;;;15.30;8.43;;;4.10;99.90;;;;;;4986236;28;20685;-54
2022/12/06 01:06:05;;;;;;;15.63;8.83;;;4.10;99.90;;;;;;4976828;28;20744;-51
2022/12/06 01:08:34;;;;;;;14.87;8.37;;;4.10;99.90;;;;;;4986438;28;20740;-49
2022/12/06 01:11:01;;;;;;;12.07;8.47;;;4.10;99.90;;;;;;4981052;28;20220;-50
2022/12/06 01:13:29;;;;;;;12.37;8.03;;;4.10;99.90;;;;;;4969027;28;20220;-47
2022/12/06 01:15:56;;;;;;;13.40;8.80;;;4.10;99.90;;;;;;4982732;28;20198;-55
2022/12/06 01:18:23;;;;;;;13.23;8.60;;;4.10;99.90;;;;;;4985841;28;20320;-53
2022/12/06 01:20:50;;;;;;;12.27;8.23;;;4.10;99.90;;;;;;4974130;28;20233;-54
2022/12/06 01:23:17;;;;;;;14.07;9.00;;;4.20;99.90;;;;;;4983621;28;20197;-55
2022/12/06 01:25:52;;;;;;;14.53;9.00;;;4.20;99.90;;;;;;4985725;28;20825;-52
2022/12/06 01:28:19;;;;;;;17.33;9.23;;;4.20;99.90;;;;;;4968657;28;20207;-48
2022/12/06 01:30:46;;;;;;;12.87;8.00;;;4.20;99.90;;;;;;4983635;28;20722;-55
2022/12/06 01:33:12;;;;;;;17.97;8.23;;;4.20;99.90;;;;;;4976437;28;20264;-48
2022/12/06 01:35:40;;;;;;;15.13;7.93;;;4.20;99.90;;;;;;4980547;28;20198;-53
2022/12/06 01:38:07;;;;;;;14.97;8.23;;;4.20;99.90;;;;;;4982694;28;20244;-49
2022/12/06 01:40:39;;;;;;;13.13;7.93;;;4.30;99.90;;;;;;4979806;28;20249;-52
2022/12/06 01:43:30;;;;;;;12.43;7.40;;;4.30;99.90;;;;;;4966939;28;20304;-50
2022/12/06 01:45:58;;;;;;;11.50;7.57;;;4.30;99.90;;;;;;4982310;28;20197;-53
2022/12/06 01:48:26;;;;;;;10.27;6.77;;;4.30;99.90;;;;;;4985861;28;20561;-51
2022/12/06 01:50:55;;;;;;;11.37;6.90;;;4.30;99.90;;;;;;4976517;28;20213;-51
2022/12/06 01:53:24;;;;;;;10.93;6.73;;;4.30;99.90;;;;;;4980038;28;20236;-52
2022/12/06 01:55:52;;;;;;;9.40;5.90;;;4.30;99.90;;;;;;4977105;28;20758;-53
2022/12/06 01:58:32;;;;;;;7.80;5.40;;;4.30;99.90;;;;;;4972250;28;20226;-48
2022/12/06 02:01:00;;;;;;;11.27;5.87;;;4.40;99.90;;;;;;4982426;28;20213;-50
2022/12/06 02:03:28;;;;;;;8.40;5.33;;;4.40;99.90;;;;;;4985209;28;20201;-50
2022/12/06 02:05:57;;;;;;;5.80;5.03;;;4.40;99.90;;;;;;4981927;28;20196;-49
2022/12/06 02:08:25;;;;;;;5.67;4.60;;;4.40;99.90;;;;;;4979974;28;20205;-50
2022/12/06 02:10:52;;;;;;;5.93;4.43;;;4.40;99.90;;;;;;4980811;28;20827;-50
2022/12/06 02:13:22;;;;;;;6.97;4.37;;;4.40;99.90;;;;;;4969253;28;20232;-48
2022/12/06 02:15:58;;;;;;;6.20;4.20;;;4.50;99.90;;;;;;4981183;28;20198;-50
2022/12/06 02:18:34;;;;;;;5.43;3.60;;;4.50;99.90;;;;;;4985129;28;20217;-48
2022/12/06 02:21:11;;;;;;;5.17;3.70;;;4.50;99.90;;;;;;4982711;28;20216;-52
2022/12/06 02:23:56;;;;;;;6.17;3.43;;;4.50;99.90;;;;;;4971143;28;20665;-52
2022/12/06 02:26:30;;;;;;;4.83;3.17;;;4.50;99.90;;;;;;4985164;28;20205;-49
2022/12/06 02:29:23;;;;;;;3.30;2.70;;;4.50;99.90;;;;;;4965773;28;20214;-48
2022/12/06 02:31:57;;;;;;;4.53;3.20;;;4.60;99.90;;;;;;4974885;28;20193;-50
2022/12/06 02:34:33;;;;;;;3.63;2.47;;;4.60;99.90;;;;;;4984911;28;20216;-51
2022/12/06 02:37:07;;;;;;;3.10;2.80;;;4.60;99.90;;;;;;4982449;28;20197;-50
2022/12/06 02:39:38;;;;;;;3.20;2.97;;;4.60;99.90;;;;;;4977768;28;20233;-52
2022/12/06 02:42:09;;;;;;;2.93;2.47;;;4.60;99.90;;;;;;4983142;28;20399;-53
2022/12/06 02:44:40;;;;;;;3.03;2.23;;;4.60;99.90;;;;;;4975686;28;20216;-49
2022/12/06 02:47:11;;;;;;;3.57;2.73;;;4.60;99.90;;;;;;4980010;28;20202;-51
2022/12/06 02:49:43;;;;;;;2.90;2.33;;;4.60;99.90;;;;;;4982111;28;20224;-53
2022/12/06 02:52:11;;;;;;;2.33;2.13;;;4.60;99.90;;;;;;4984073;28;20532;-48
2022/12/06 02:54:39;;;;;;;4.27;1.83;;;4.60;99.90;;;;;;4977165;28;20280;-52
2022/12/06 02:57:06;;;;;;;4.37;2.00;;;4.60;99.90;;;;;;4983403;28;20197;-48
2022/12/06 02:59:33;;;;;;;2.47;2.27;;;4.60;99.90;;;;;;4983481;28;20225;-52
2022/12/06 03:02:02;;;;;;;2.30;2.10;;;4.60;99.90;;;;;;4965706;28;20211;-51
2022/12/06 03:04:48;;;;;;;2.43;2.20;;;4.60;99.90;;;;;;4983677;28;20213;-52
2022/12/06 03:07:31;;;;;;;2.60;2.00;;;4.60;99.90;;;;;;4984605;28;20662;-49
2022/12/06 03:10:19;;;;;;;2.70;2.40;;;4.60;99.90;;;;;;4976110;28;20217;-52
2022/12/06 03:12:54;;;;;;;3.17;2.87;;;4.70;99.90;;;;;;4980239;28;20736;-53
2022/12/06 03:15:33;;;;;;;2.47;2.10;;;4.60;99.90;;;;;;4984376;28;20197;-50
2022/12/06 03:18:09;;;;;;;4.17;3.77;;;4.70;99.90;;;;;;4965945;28;20216;-50
2022/12/06 03:20:44;;;;;;;5.23;2.90;;;4.70;99.90;;;;;;4982200;28;20213;-55
2022/12/06 03:23:14;;;;;;;3.37;3.07;;;4.70;99.90;;;;;;4983422;28;20215;-50
2022/12/06 03:26:05;;;;;;;3.23;2.90;;;4.70;99.90;;;;;;4976939;28;20963;-48
2022/12/06 03:28:36;;;;;;;3.87;3.20;;;4.70;99.90;;;;;;4983371;28;20208;-50
2022/12/06 03:31:08;;;;;;;4.83;3.37;;;4.70;99.90;;;;;;4981926;28;20228;-51
2022/12/06 03:33:39;;;;;;;3.37;3.03;;;4.70;99.90;;;;;;4966450;28;20205;-53
2022/12/06 03:36:10;;;;;;;4.37;2.87;;;4.70;99.90;;;;;;4981261;28;20284;-50
2022/12/06 03:38:51;;;;;;;3.73;3.13;;;4.70;99.90;;;;;;4982156;28;20213;-50
2022/12/06 03:41:21;;;;;;;3.23;2.87;;;4.70;99.90;;;;;;4978792;28;20201;-50
2022/12/06 03:43:48;;;;;;;3.10;2.80;;;4.70;99.90;;;;;;4979759;28;20375;-50
2022/12/06 03:46:18;;;;;;;2.60;2.40;;;4.70;99.90;;;;;;4983780;28;20538;-48
2022/12/06 03:48:49;;;;;;;3.87;2.60;;;4.70;99.90;;;;;;4959400;28;20206;-53
2022/12/06 03:51:21;;;;;;;2.50;2.30;;;4.70;99.90;;;;;;4981515;28;20561;-53
2022/12/06 03:53:52;;;;;;;3.10;2.80;;;4.70;99.90;;;;;;4980048;28;20200;-50
2022/12/06 03:56:19;;;;;;;2.83;2.63;;;4.70;99.90;;;;;;4978264;28;20353;-50
2022/12/06 03:58:46;;;;;;;2.87;2.63;;;4.70;99.90;;;;;;4980129;28;20599;-52
2022/12/06 04:01:13;;;;;;;3.03;2.83;;;4.70;99.90;;;;;;4983695;28;20198;-52
2022/12/06 04:03:40;;;;;;;4.63;3.13;;;4.70;99.90;;;;;;4957340;28;20209;-54
2022/12/06 04:06:30;;;;;;;4.00;2.90;;;4.70;99.90;;;;;;4980421;28;20204;-49
2022/12/06 04:09:51;;;;;;;3.40;3.07;;;4.70;99.90;;;;;;4983055;28;20198;-55
2022/12/06 04:11:45;;;;;;;3.23;3.03;;;4.70;99.90;;;;;;4978305;28;20228;-49
2022/12/06 04:14:12;;;;;;;6.63;3.23;;;4.60;99.90;;;;;;4979907;28;20256;-54
2022/12/06 04:19:23;;;;;;;3.93;3.07;;;4.60;99.90;;;;;;4964126;28;20229;-53
2022/12/06 04:24:36;;;;;;;4.43;3.30;;;4.60;99.90;;;;;;4983210;28;20669;-48
2022/12/06 04:40:46;;;;;;;7.13;3.67;;;4.50;99.90;;;;;;4986803;28;20236;-49
2022/12/06 04:45:58;;;;;;;5.83;3.13;;;4.50;99.90;;;;;;4986157;28;20201;-54
2022/12/06 04:48:25;;;;;;;4.33;3.37;;;4.50;99.90;;;;;;4984192;28;20193;-50
2022/12/06 04:50:52;;;;;;;4.63;3.33;;;4.50;99.90;;;;;;4970762;28;20225;-48
2022/12/06 04:53:21;;;;;;;4.57;3.30;;;4.60;99.90;;;;;;4977740;28;20311;-50
2022/12/06 04:55:48;;;;;;;5.80;3.50;;;4.50;99.90;;;;;;4986957;28;20210;-48
2022/12/06 04:58:16;;;;;;;3.47;2.93;;;4.60;99.90;;;;;;4976886;28;20287;-51
2022/12/06 05:00:43;;;;;;;3.60;3.10;;;4.60;99.90;;;;;;4985448;28;20295;-48
2022/12/06 05:03:11;;;;;;;5.10;3.90;;;4.60;99.90;;;;;;4982815;28;20201;-54
2022/12/06 05:05:38;;;;;;;4.10;3.27;;;4.50;99.90;;;;;;4965402;28;20205;-51
2022/12/06 05:08:05;;;;;;;4.60;3.90;;;4.50;99.90;;;;;;4978585;28;20209;-52
2022/12/06 05:10:34;;;;;;;5.70;3.60;;;4.50;99.90;;;;;;4982635;28;20228;-54
2022/12/06 05:13:00;;;;;;;6.83;3.73;;;4.50;99.90;;;;;;4974317;28;20216;-51
2022/12/06 05:15:28;;;;;;;7.23;3.83;;;4.60;99.90;;;;;;4987697;28;20549;-52
2022/12/06 05:17:55;;;;;;;5.80;3.77;;;4.50;99.90;;;;;;4981564;28;20202;-49
2022/12/06 05:20:22;;;;;;;5.73;4.17;;;4.60;99.90;;;;;;4968479;28;20303;-50
2022/12/06 05:22:49;;;;;;;7.90;4.50;;;4.60;99.90;;;;;;4980497;28;20891;-48
2022/12/06 05:25:16;;;;;;;4.97;3.23;;;4.60;99.90;;;;;;4986863;28;20202;-54
2022/12/06 05:27:45;;;;;;;5.80;4.73;;;4.60;99.90;;;;;;4986966;28;20189;-51
2022/12/06 05:30:12;;;;;;;5.90;4.07;;;4.60;99.90;;;;;;4980687;28;20630;-54
2022/12/06 05:32:40;;;;;;;5.60;3.60;;;4.60;99.90;;;;;;4978429;28;20198;-50
2022/12/06 05:35:08;;;;;;;4.90;4.13;;;4.60;99.90;;;;;;4985954;28;20217;-54
2022/12/06 05:37:35;;;;;;;6.37;4.07;;;4.60;99.90;;;;;;4962130;28;20202;-51
2022/12/06 05:40:02;;;;;;;5.70;3.90;;;4.60;99.90;;;;;;4988283;28;21012;-51
2022/12/06 05:42:28;;;;;;;4.17;3.77;;;4.60;99.90;;;;;;4983840;28;20224;-55
2022/12/06 05:44:57;;;;;;;6.23;4.07;;;4.60;99.90;;;;;;4980007;28;20216;-51
2022/12/06 05:47:24;;;;;;;5.87;3.13;;;4.60;99.90;;;;;;4985098;28;20202;-54
2022/12/06 05:49:51;;;;;;;5.43;3.67;;;4.60;99.90;;;;;;4984274;28;20992;-50
2022/12/06 05:52:18;;;;;;;3.40;3.10;;;4.60;99.90;;;;;;4971236;28;20222;-54
2022/12/06 05:54:45;;;;;;;3.07;2.80;;;4.60;99.90;;;;;;4978720;28;20206;-49
2022/12/06 05:57:12;;;;;;;3.37;3.00;;;4.60;99.90;;;;;;4985718;28;20204;-53
2022/12/06 05:59:39;;;;;;;2.70;2.50;;;4.60;99.90;;;;;;4982866;28;20231;-53
2022/12/06 06:02:08;;;;;;;2.87;2.57;;;4.50;99.90;;;;;;4980012;28;20225;-51
2022/12/06 06:04:35;;;;;;;2.90;2.70;;;4.50;99.90;;;;;;4976576;28;20921;-51
2022/12/06 06:07:02;;;;;;;2.83;2.50;;;4.50;99.90;;;;;;4989202;28;20216;-50
2022/12/06 06:09:29;;;;;;;3.00;2.77;;;4.50;99.90;;;;;;4966339;28;20216;-49
2022/12/06 06:11:56;;;;;;;2.90;2.40;;;4.50;99.90;;;;;;4983069;28;20209;-50
2022/12/06 06:14:23;;;;;;;2.77;2.40;;;4.50;99.90;;;;;;4980782;28;20201;-54
2022/12/06 06:16:50;;;;;;;2.50;2.30;;;4.50;99.90;;;;;;4977642;28;20201;-50
2022/12/06 06:19:22;;;;;;;2.60;2.30;;;4.50;99.90;;;;;;4978556;28;20319;-54
2022/12/06 06:21:49;;;;;;;2.83;2.03;;;4.50;99.90;;;;;;4982900;28;20200;-49
2022/12/06 06:24:17;;;;;;;3.03;2.27;;;4.50;99.90;;;;;;4969873;28;20213;-53
2022/12/06 06:26:44;;;;;;;2.30;2.10;;;4.40;99.90;;;;;;4984172;28;20209;-51
2022/12/06 06:29:11;;;;;;;2.90;2.27;;;4.50;99.90;;;;;;4990148;28;20228;-53
2022/12/06 06:31:38;;;;;;;2.63;2.40;;;4.50;99.90;;;;;;4978003;28;20910;-49
2022/12/06 06:34:05;;;;;;;2.40;2.20;;;4.50;99.90;;;;;;4973532;28;20673;-53
2022/12/06 06:36:33;;;;;;;2.63;2.43;;;4.40;99.90;;;;;;4975417;28;20860;-49
2022/12/06 06:39:00;;;;;;;3.23;2.90;;;4.50;99.90;;;;;;4958304;28;20624;-51
2022/12/06 06:41:27;;;;;;;3.20;2.90;;;4.40;99.90;;;;;;4974745;28;20228;-53
2022/12/06 06:43:54;;;;;;;3.10;2.77;;;4.40;99.90;;;;;;4983283;28;20293;-51
2022/12/06 06:46:21;;;;;;;4.47;3.10;;;4.40;99.90;;;;;;4981158;28;20201;-53
2022/12/06 06:48:48;;;;;;;3.07;2.80;;;4.40;99.90;;;;;;4978627;28;20573;-50
2022/12/06 06:51:14;;;;;;;3.93;3.53;;;4.40;99.90;;;;;;4975798;28;20202;-54
2022/12/06 06:53:43;;;;;;;6.03;4.37;;;4.40;99.90;;;;;;4964071;28;20214;-52
2022/12/06 06:56:10;;;;;;;4.33;3.30;;;4.40;99.90;;;;;;4980990;28;20256;-50
2022/12/06 06:58:36;;;;;;;4.07;3.67;;;4.40;99.90;;;;;;4976227;28;20206;-51
2022/12/06 07:01:06;;;;;;;5.60;3.73;;;4.40;99.90;;;;;;4983177;28;20234;-50
2022/12/06 07:03:34;;;;;;;5.03;3.70;;;4.40;99.90;;;;;;4974044;28;20251;-51
2022/12/06 07:06:03;;;;;;;5.13;4.50;;;4.30;99.90;;;;;;4968191;28;20212;-52
2022/12/06 07:08:31;;;;;;;5.73;4.50;;;4.30;99.90;;;;;;4958720;28;21221;-50
2022/12/06 07:10:59;;;;;;;4.43;3.87;;;4.30;99.90;;;;;;4983303;28;20217;-52
2022/12/06 07:13:28;;;;;;;5.43;4.10;;;4.40;99.90;;;;;;4974560;28;20966;-51
2022/12/06 07:15:55;;;;;;;4.23;3.77;;;4.30;99.90;;;;;;4983042;28;20213;-53
2022/12/06 07:18:22;;;;;;;4.87;3.57;;;4.40;99.90;;;;;;4983482;28;20696;-52
2022/12/06 07:20:57;;;;;;;4.23;3.77;;;4.30;99.90;;;;;;4993153;28;20290;-50
2022/12/06 07:23:24;;;;;;;5.40;4.43;;;4.30;99.90;;;;;;4967941;28;20921;-50
2022/12/06 07:26:01;;;;;;;5.67;4.20;;;4.30;99.90;;;;;;4967402;28;20212;-50
2022/12/06 07:28:28;;;;;;;4.50;4.10;;;4.30;99.90;;;;;;4974456;28;20200;-52
2022/12/06 07:30:55;;;;;;;6.00;4.77;;;4.30;99.90;;;;;;4984243;28;20213;-50
2022/12/06 07:33:22;;;;;;;5.17;3.97;;;4.30;99.90;;;;;;4972738;28;20201;-53
2022/12/06 07:35:51;;;;;;;5.50;4.00;;;4.30;99.90;;;;;;4972454;28;20772;-57
2022/12/06 07:38:19;;;;;;;4.93;3.33;;;4.30;99.90;;;;;;4980455;28;20205;-55
2022/12/06 07:40:46;;;;;;;5.53;4.80;;;4.30;99.90;;;;;;4956270;28;20231;-48
2022/12/06 07:46:00;;;;;;;6.37;4.63;;;4.30;99.90;;;;;;4977199;28;20220;-47
2022/12/06 07:48:27;;;;;;;6.80;4.47;;;4.30;99.90;;;;;;4977636;28;20201;-52
2022/12/06 07:50:53;;;;;;;5.00;4.37;;;4.20;99.90;;;;;;4969280;28;20221;-51
2022/12/06 07:53:20;;;;;;;5.33;4.20;;;4.30;99.90;;;;;;4973540;28;20533;-52
2022/12/06 07:55:47;;;;;;;5.30;4.30;;;4.30;99.90;;;;;;4965812;28;20217;-53
2022/12/06 07:58:15;;;;;;;5.10;4.10;;;4.30;99.90;;;;;;4977948;28;20255;-49
2022/12/06 08:00:42;;;;;;;5.97;4.57;;;4.30;99.90;;;;;;4972337;28;20225;-51
2022/12/06 08:03:10;;;;;;;5.70;4.40;;;4.30;99.90;;;;;;4979280;28;20202;-51
2022/12/06 08:05:37;;;;;;;5.37;4.40;;;4.30;99.90;;;;;;4973366;28;20201;-50
2022/12/06 08:08:04;;;;;;;5.57;4.47;;;4.30;99.90;;;;;;4979928;28;20220;-51
2022/12/06 08:10:31;;;;;;;6.13;4.57;;;4.30;99.90;;;;;;4969032;28;20213;-49
2022/12/06 08:12:58;;;;;;;5.83;4.20;;;4.20;99.90;;;;;;4981907;28;20205;-51
2022/12/06 08:15:25;;;;;;;5.77;4.33;;;4.20;99.90;;;;;;4978630;28;20217;-47
2022/12/06 08:17:52;;;;;;;4.87;4.17;;;4.30;99.90;;;;;;4986269;28;20209;-52
2022/12/06 08:20:19;;;;;;;5.70;4.43;;;4.30;99.90;;;;;;4973852;28;20705;-52
2022/12/06 08:22:46;;;;;;;6.80;5.40;;;4.20;99.90;;;;;;4986879;28;20331;-52
2022/12/06 08:25:12;;;;;;;5.90;4.63;;;4.20;99.90;;;;;;4986500;28;20755;-48
2022/12/06 08:27:39;;;;;;;6.93;5.10;;;4.20;99.90;;;;;;4971861;28;20611;-51
2022/12/06 08:30:07;;;;;;;5.43;4.93;;;4.20;99.90;;;;;;4982980;28;20220;-51
2022/12/06 08:32:35;;;;;;;6.30;4.77;;;4.20;99.90;;;;;;4980748;28;20209;-49
2022/12/06 08:35:02;;;;;;;6.90;5.17;;;4.20;99.90;;;;;;4984472;28;20245;-53
2022/12/06 08:37:29;;;;;;;7.23;5.60;;;4.20;99.90;;;;;;4979091;28;20201;-50
2022/12/06 08:39:55;;;;;;;8.40;6.20;;;4.20;99.90;;;;;;4984408;28;20236;-51
2022/12/06 08:42:22;;;;;;;8.80;5.10;;;4.20;99.90;;;;;;4968506;28;20291;-47
2022/12/06 08:44:53;;;;;;;8.37;5.93;;;4.20;99.90;;;;;;4985267;28;20205;-50
2022/12/06 08:47:20;;;;;;;5.53;5.03;;;4.20;99.90;;;;;;4978347;28;20209;-50
2022/12/06 08:49:49;;;;;;;6.20;5.33;;;4.20;99.90;;;;;;4986303;28;20727;-52
2022/12/06 08:52:16;;;;;;;7.00;5.07;;;4.20;99.90;;;;;;4976488;28;20202;-50
2022/12/06 08:54:43;;;;;;;7.40;5.33;;;4.20;99.90;;;;;;4986538;28;20680;-47
2022/12/06 08:57:10;;;;;;;8.10;5.53;;;4.20;99.90;;;;;;4980292;28;20228;-53
2022/12/06 08:59:37;;;;;;;6.60;5.27;;;4.20;99.90;;;;;;4971652;28;20229;-53
2022/12/06 09:02:04;;;;;;;6.23;5.57;;;4.20;99.90;;;;;;4976922;28;20283;-51
2022/12/06 09:04:31;;;;;;;7.20;6.00;;;4.20;99.90;;;;;;4985474;28;20202;-52
2022/12/06 09:07:00;;;;;;;7.10;5.87;;;4.20;99.90;;;;;;4981859;28;20201;-53
2022/12/06 09:09:26;;;;;;;7.60;6.23;;;4.20;99.90;;;;;;4981311;28;20233;-53
2022/12/06 09:11:53;;;;;;;9.47;6.27;;;4.10;99.90;;;;;;4983532;28;20273;-52
2022/12/06 09:14:20;;;;;;;8.03;6.43;;;4.10;99.90;;;;;;4968031;28;20872;-50
2022/12/06 09:16:48;;;;;;;10.50;7.00;;;4.10;99.90;;;;;;4984945;28;20208;-50
2022/12/06 09:19:15;;;;;;;15.57;8.50;;;4.10;99.90;;;;;;4976194;28;20217;-50
2022/12/06 09:21:45;;;;;;;11.47;6.57;;;4.10;99.90;;;;;;4987047;28;20573;-53
2022/12/06 09:24:15;;;;;;;8.70;6.50;;;4.10;99.90;;;;;;4976262;28;20363;-51
2022/12/06 09:26:42;;;;;;;10.53;6.03;;;4.20;99.90;;;;;;4984170;28;20212;-50
2022/12/06 09:29:10;;;;;;;8.53;6.23;;;4.20;99.90;;;;;;4965903;28;20252;-50
2022/12/06 09:31:39;;;;;;;8.07;6.33;;;4.20;99.90;;;;;;4983422;28;20249;-52
2022/12/06 09:34:08;;;;;;;10.63;7.00;;;4.20;99.90;;;;;;4975217;28;20205;-54
2022/12/06 09:36:40;;;;;;;9.40;6.87;;;4.20;99.90;;;;;;4984388;28;20198;-51
2022/12/06 09:39:12;;;;;;;9.20;6.47;;;4.20;99.90;;;;;;4975679;28;20229;-53
2022/12/06 09:41:56;;;;;;;8.93;5.63;;;4.20;99.90;;;;;;4977193;28;20218;-48
2022/12/06 09:44:41;;;;;;;9.27;6.20;;;4.20;99.90;;;;;;4965793;28;20293;-52
2022/12/06 09:47:22;;;;;;;6.70;5.67;;;4.20;99.90;;;;;;4979634;28;20201;-53
2022/12/06 09:50:04;;;;;;;8.63;6.10;;;4.10;99.90;;;;;;4975467;28;20248;-51
2022/12/06 09:52:48;;;;;;;8.10;6.40;;;4.20;99.90;;;;;;4983277;28;20221;-55
2022/12/06 09:55:30;;;;;;;9.10;6.50;;;4.10;99.90;;;;;;4973520;28;20198;-53
2022/12/06 09:58:03;;;;;;;10.57;7.17;;;4.20;99.90;;;;;;4976377;28;20201;-54
2022/12/06 10:00:37;;;;;;;9.77;6.67;;;4.10;99.90;;;;;;4967490;28;20244;-53
2022/12/06 10:03:28;;;;;;;8.37;6.07;;;4.20;99.90;;;;;;4980325;28;20196;-52
2022/12/06 10:06:01;;;;;;;8.83;6.77;;;4.20;99.90;;;;;;4969050;28;20244;-52
2022/12/06 10:08:53;;;;;;;9.70;6.23;;;4.20;99.90;;;;;;4985769;28;20203;-51
2022/12/06 10:11:31;;;;;;;9.97;7.10;;;4.20;99.90;;;;;;4976826;28;20208;-54
2022/12/06 10:14:08;;;;;;;11.27;7.00;;;4.20;99.90;;;;;;4981194;28;20283;-55
2022/12/06 10:16:49;;;;;;;9.03;6.73;;;4.30;99.90;;;;;;4968110;28;20212;-54
2022/12/06 10:19:24;;;;;;;9.97;6.77;;;4.30;99.90;;;;;;4978661;28;20232;-48
2022/12/06 10:22:03;;;;;;;10.40;6.93;;;4.30;99.90;;;;;;4977076;28;20227;-50
2022/12/06 10:24:47;;;;;;;11.37;6.97;;;4.20;99.90;;;;;;4974265;28;20215;-52
2022/12/06 10:27:20;;;;;;;11.60;7.43;;;4.30;99.90;;;;;;4979538;28;20193;-48
2022/12/06 10:29:55;;;;;;;13.10;8.10;;;4.30;99.90;;;;;;4984491;28;20249;-52
2022/12/06 10:32:34;;;;;;;12.93;7.80;;;4.30;99.90;;;;;;4972252;28;20221;-50
2022/12/06 10:35:13;;;;;;;9.97;7.57;;;4.30;99.90;;;;;;4976949;28;20595;-51
2022/12/06 10:37:49;;;;;;;11.50;7.67;;;4.30;99.90;;;;;;4975230;28;20302;-53
2022/12/06 10:40:20;;;;;;;11.03;7.17;;;4.20;99.90;;;;;;4973877;28;20240;-54
2022/12/06 10:42:53;;;;;;;13.67;8.07;;;4.20;99.90;;;;;;4979398;28;20662;-50
2022/12/06 10:48:17;;;;;;;11.77;7.60;;;4.20;99.90;;;;;;4962500;28;20205;-54
2022/12/06 10:50:48;;;;;;;11.77;7.17;;;4.20;99.90;;;;;;4980790;28;20220;-53
2022/12/06 10:53:19;;;;;;;13.10;7.73;;;4.20;99.90;;;;;;4986581;28;20934;-49
2022/12/06 10:55:51;;;;;;;11.80;8.27;;;4.20;99.90;;;;;;4983642;28;20197;-54
2022/12/06 10:58:29;;;;;;;11.73;7.60;;;4.20;99.90;;;;;;4975508;28;20201;-54
2022/12/06 11:01:00;;;;;;;12.10;7.77;;;4.20;99.90;;;;;;4979210;28;20221;-53
2022/12/06 11:03:32;;;;;;;11.03;7.53;;;4.20;99.90;;;;;;4964173;28;20201;-54
2022/12/06 11:06:06;;;;;;;12.23;7.73;;;4.20;99.90;;;;;;4978063;28;20193;-53
2022/12/06 11:08:38;;;;;;;13.97;7.13;;;4.20;99.90;;;;;;4975237;28;20863;-54
2022/12/06 11:11:13;;;;;;;11.80;8.40;;;4.10;99.90;;;;;;4984487;28;20240;-52
2022/12/06 11:13:46;;;;;;;14.57;8.33;;;4.20;99.90;;;;;;4968773;28;20248;-55
2022/12/06 11:16:19;;;;;;;11.87;7.93;;;4.20;99.90;;;;;;4983084;28;20205;-55
2022/12/06 11:18:48;;;;;;;14.70;7.73;;;4.20;99.90;;;;;;4963107;28;20217;-57
2022/12/06 11:21:24;;;;;;;13.77;7.47;;;4.20;99.90;;;;;;4982532;28;20217;-57
2022/12/06 11:23:56;;;;;;;15.40;7.60;;;4.20;99.90;;;;;;4973293;28;20900;-57
2022/12/06 11:26:29;;;;;;;10.17;7.00;;;4.20;99.90;;;;;;4983276;28;20571;-56
2022/12/06 11:29:04;;;;;;;15.30;8.67;;;4.10;99.90;;;;;;4975288;28;20197;-57
2022/12/06 11:31:36;;;;;;;14.30;8.80;;;4.20;99.90;;;;;;4972482;28;20271;-57
2022/12/06 11:34:06;;;;;;;12.67;8.30;;;4.20;99.90;;;;;;4966264;28;20213;-55
2022/12/06 11:36:32;;;;;;;13.73;9.30;;;4.20;99.90;;;;;;4973825;28;20205;-57
2022/12/06 11:39:00;;;;;;;14.63;8.30;;;4.10;99.90;;;;;;4977550;28;20281;-56
2022/12/06 11:41:29;;;;;;;14.40;9.07;;;4.10;99.90;;;;;;4979703;28;20213;-53
2022/12/06 11:43:58;;;;;;;14.90;8.77;;;4.10;99.90;;;;;;4978846;28;20209;-54
2022/12/06 11:46:25;;;;;;;14.43;8.73;;;4.10;99.90;;;;;;4985630;28;20212;-57
2022/12/06 11:48:54;;;;;;;10.97;7.43;;;4.10;99.90;;;;;;4970090;28;20217;-52
2022/12/06 11:51:23;;;;;;;13.03;7.93;;;4.10;99.90;;;;;;4979907;28;20280;-55
2022/12/06 11:53:57;;;;;;;11.60;7.27;;;4.10;99.90;;;;;;4978969;28;21012;-55
2022/12/06 11:56:26;;;;;;;12.80;8.47;;;4.10;99.90;;;;;;4986011;28;20219;-53
2022/12/06 11:59:07;;;;;;;15.60;9.00;;;4.10;99.90;;;;;;4980589;28;20201;-53
2022/12/06 12:01:40;;;;;;;11.90;8.77;;;4.10;99.90;;;;;;4978924;28;20217;-57
2022/12/06 12:07:05;;;;;;;12.63;7.17;;;4.10;99.90;;;;;;5081511;27;20559;-55
2022/12/06 12:09:36;;;;;;;10.60;6.80;;;4.00;99.90;;;;;;5071696;28;20226;-56
2022/12/06 12:12:06;;;;;;;10.23;7.17;;;4.00;99.90;;;;;;5075278;28;20202;-55
2022/12/06 12:14:38;;;;;;;10.33;6.77;;;4.00;99.90;;;;;;5065947;28;20267;-54
2022/12/06 12:17:16;;;;;;;9.23;5.83;;;4.00;99.90;;;;;;5074163;28;20228;-53
2022/12/06 12:19:47;;;;;;;10.83;6.07;;;4.00;99.90;;;;;;5049231;28;20230;-57
2022/12/06 12:22:23;;;;;;;6.93;5.27;;;4.00;99.90;;;;;;5068642;28;20206;-54
2022/12/06 12:24:52;;;;;;;7.80;5.50;;;4.00;99.90;;;;;;5066663;28;20870;-55
2022/12/06 12:27:43;;;;;;;9.27;5.77;;;3.90;99.90;;;;;;5070455;28;20206;-55
2022/12/06 12:30:21;;;;;;;9.00;5.97;;;4.00;99.90;;;;;;5064347;28;20323;-52
2022/12/06 12:32:51;;;;;;;8.57;6.17;;;4.00;99.90;;;;;;5070163;28;20201;-49
2022/12/06 12:35:26;;;;;;;9.30;5.83;;;4.00;99.90;;;;;;5073652;28;20653;-54
2022/12/06 12:37:58;;;;;;;8.43;6.30;;;4.00;99.90;;;;;;5071003;28;20202;-52
2022/12/06 12:40:27;;;;;;;8.00;5.80;;;4.00;99.90;;;;;;5070758;28;20222;-52
2022/12/06 12:42:59;;;;;;;10.67;6.60;;;4.00;99.90;;;;;;5073159;28;20366;-54
2022/12/06 12:45:26;;;;;;;8.57;5.80;;;4.00;99.90;;;;;;5070777;28;20222;-51
2022/12/06 12:48:01;;;;;;;10.27;5.77;;;3.90;99.90;;;;;;5070172;28;20217;-56
2022/12/06 12:50:29;;;;;;;9.03;6.37;;;3.90;99.90;;;;;;5076832;28;20218;-57
2022/12/06 12:52:58;;;;;;;7.37;5.70;;;3.90;99.90;;;;;;5057366;28;20203;-57
2022/12/06 12:55:26;;;;;;;10.47;6.27;;;3.90;99.90;;;;;;5071687;28;20190;-54
2022/12/06 12:57:55;;;;;;;8.33;6.03;;;3.80;99.90;;;;;;5068187;28;20292;-57
2022/12/06 13:00:24;;;;;;;15.50;7.33;;;3.80;99.90;;;;;;5071425;28;20221;-54
2022/12/06 13:02:55;;;;;;;12.43;6.90;;;3.80;99.90;;;;;;5070088;28;20194;-52
2022/12/06 13:05:24;;;;;;;9.37;6.37;;;3.70;99.90;;;;;;5066354;28;20275;-56
2022/12/06 13:07:53;;;;;;;9.10;5.97;;;3.70;99.90;;;;;;5055940;28;20198;-56
2022/12/06 13:10:29;;;;;;;6.80;5.17;;;3.70;99.90;;;;;;5068874;28;20214;-54
2022/12/06 13:13:00;;;;;;;8.97;6.13;;;3.70;99.90;;;;;;5072955;28;20202;-55
2022/12/06 13:15:33;;;;;;;10.17;5.93;;;3.60;99.90;;;;;;5072017;28;20190;-52
2022/12/06 13:18:10;;;;;;;7.57;5.37;;;3.60;99.90;;;;;;5061639;28;20294;-55
2022/12/06 13:20:37;;;;;;;10.13;5.03;;;3.60;99.90;;;;;;5058999;28;20285;-55
2022/12/06 13:23:08;;;;;;;7.17;4.93;;;3.60;99.90;;;;;;5048228;28;20210;-54
2022/12/06 13:25:37;;;;;;;6.87;4.97;;;3.60;99.90;;;;;;5061725;28;20218;-54
2022/12/06 13:28:12;;;;;;;6.23;5.43;;;3.60;99.90;;;;;;5056078;28;20199;-57
2022/12/06 13:30:40;;;;;;;7.27;4.57;;;3.60;99.90;;;;;;5055045;28;20671;-54
2022/12/06 13:33:17;;;;;;;5.43;4.90;;;3.60;99.90;;;;;;5058315;28;20194;-52
2022/12/06 13:35:54;;;;;;;8.17;4.87;;;3.60;99.90;;;;;;5055548;28;20182;-52
2022/12/06 13:38:24;;;;;;;7.70;5.30;;;3.60;99.90;;;;;;5044125;28;20722;-56
2022/12/06 13:40:52;;;;;;;5.63;4.47;;;3.60;99.90;;;;;;5059878;28;20207;-54